Time;durP1;ratioP1;P1;durP2;ratioP2;P2;SDS_P1;SDS_P2;PMS_P1;PMS_P2;Temp;Humidity;BMP_temperature;BMP_pressure;BME280_temperature;BME280_humidity;BME280_pressure;Samples;Min_cycle;Max_cycle;Signal;HPM_P1;HPM_P2
2022/01/10 00:01:35;;;;;;;9.73;7.67;;;;;;;;;;4917510;29;20214;-94
2022/01/10 00:04:02;;;;;;;11.43;7.77;;;;;;;;;;4919403;29;20669;-94
2022/01/10 00:06:30;;;;;;;12.30;7.60;;;;;;;;;;4919584;29;20230;-94
2022/01/10 00:08:59;;;;;;;9.10;6.83;;;;;;;;;;4919370;29;20214;-94
2022/01/10 00:11:26;;;;;;;12.97;9.00;;;;;;;;;;4919644;29;20251;-93
2022/01/10 00:13:53;;;;;;;12.10;8.90;;;;;;;;;;4919773;29;20214;-94
2022/01/10 00:16:21;;;;;;;10.57;8.00;;;;;;;;;;4919510;29;20416;-94
2022/01/10 00:18:48;;;;;;;13.40;8.50;;;;;;;;;;4919074;29;20262;-94
2022/01/10 00:21:16;;;;;;;11.27;8.17;;;;;;;;;;4919914;29;20207;-93
2022/01/10 00:23:43;;;;;;;11.67;7.47;;;;;;;;;;4905321;29;20211;-94
2022/01/10 00:26:12;;;;;;;12.13;7.97;;;;;;;;;;4905070;29;20226;-94
2022/01/10 00:28:40;;;;;;;9.93;7.80;;;;;;;;;;4919578;29;20213;-94
2022/01/10 00:31:07;;;;;;;8.37;6.83;;;;;;;;;;4919544;29;20218;-94
2022/01/10 00:33:34;;;;;;;9.33;7.53;;;;;;;;;;4919726;29;20219;-94
2022/01/10 00:36:02;;;;;;;11.70;7.73;;;;;;;;;;4919118;29;20227;-94
2022/01/10 00:38:29;;;;;;;10.80;7.20;;;;;;;;;;4919257;29;20206;-94
2022/01/10 00:40:56;;;;;;;13.57;7.53;;;;;;;;;;4919339;29;20594;-94
2022/01/10 00:43:32;;;;;;;10.77;6.73;;;;;;;;;;4919328;29;20234;-94
2022/01/10 00:45:59;;;;;;;9.10;7.07;;;;;;;;;;4920020;29;20285;-94
2022/01/10 00:48:27;;;;;;;9.83;7.23;;;;;;;;;;4920242;29;20206;-94
2022/01/10 00:50:54;;;;;;;11.77;6.70;;;;;;;;;;4919396;29;20282;-94
2022/01/10 00:53:21;;;;;;;10.57;7.37;;;;;;;;;;4906760;29;20203;-94
2022/01/10 00:55:49;;;;;;;9.23;6.70;;;;;;;;;;4919518;29;20223;-94
2022/01/10 00:58:16;;;;;;;9.63;7.50;;;;;;;;;;4920016;29;20214;-93
2022/01/10 01:00:45;;;;;;;8.70;6.57;;;;;;;;;;4909307;29;20226;-94
2022/01/10 01:03:12;;;;;;;9.97;7.73;;;;;;;;;;4919237;29;20210;-94
2022/01/10 01:05:42;;;;;;;11.10;7.53;;;;;;;;;;4920138;29;20241;-94
2022/01/10 01:08:11;;;;;;;10.17;7.00;;;;;;;;;;4919375;29;20221;-94
2022/01/10 01:13:36;;;;;;;7.83;6.50;;;;;;;;;;4917895;29;20198;-94
2022/01/10 01:16:16;;;;;;;10.67;6.33;;;;;;;;;;4919692;29;20231;-94
2022/01/10 01:19:26;;;;;;;10.93;6.63;;;;;;;;;;4912280;29;20240;-94
2022/01/10 01:24:38;;;;;;;10.67;6.50;;;;;;;;;;4920834;29;20225;-94
2022/01/10 01:27:06;;;;;;;8.50;6.73;;;;;;;;;;4919922;29;20199;-94
2022/01/10 01:29:34;;;;;;;9.00;6.47;;;;;;;;;;4919707;29;20639;-94
2022/01/10 01:32:02;;;;;;;8.80;6.17;;;;;;;;;;4919029;29;20211;-94
2022/01/10 01:34:30;;;;;;;9.33;5.80;;;;;;;;;;4918299;29;20239;-94
2022/01/10 01:36:57;;;;;;;8.90;7.03;;;;;;;;;;4917928;29;20222;-94
2022/01/10 01:39:29;;;;;;;10.33;6.47;;;;;;;;;;4918343;29;20210;-94
2022/01/10 01:42:01;;;;;;;8.63;5.80;;;;;;;;;;4918828;29;20242;-94
2022/01/10 01:44:29;;;;;;;9.93;6.57;;;;;;;;;;4917947;29;20214;-94
2022/01/10 01:46:56;;;;;;;8.90;6.87;;;;;;;;;;4917938;29;20206;-94
2022/01/10 01:49:25;;;;;;;7.87;6.73;;;;;;;;;;4918643;29;20222;-93
2022/01/10 01:51:53;;;;;;;8.93;6.10;;;;;;;;;;4919178;29;20217;-94
2022/01/10 01:54:21;;;;;;;11.43;6.73;;;;;;;;;;4917992;29;20242;-94
2022/01/10 01:56:49;;;;;;;10.77;7.90;;;;;;;;;;4918351;29;20223;-93
2022/01/10 01:59:17;;;;;;;8.00;7.03;;;;;;;;;;4918119;29;20266;-94
2022/01/10 02:01:45;;;;;;;9.53;6.90;;;;;;;;;;4917115;29;20226;-94
2022/01/10 02:04:12;;;;;;;10.80;7.07;;;;;;;;;;4924901;29;20236;-93
2022/01/10 02:06:41;;;;;;;13.93;7.87;;;;;;;;;;4918867;29;20703;-94
2022/01/10 02:09:08;;;;;;;11.07;7.73;;;;;;;;;;4918323;29;20520;-94
2022/01/10 02:11:36;;;;;;;13.40;7.83;;;;;;;;;;4917968;29;20207;-94
2022/01/10 02:14:13;;;;;;;10.00;6.97;;;;;;;;;;4917950;29;20266;-94
2022/01/10 02:16:43;;;;;;;8.47;6.20;;;;;;;;;;4918010;29;20225;-94
2022/01/10 02:19:11;;;;;;;9.77;7.33;;;;;;;;;;4914347;29;20206;-94
2022/01/10 02:21:40;;;;;;;11.37;7.30;;;;;;;;;;4917137;29;20198;-93
2022/01/10 02:24:08;;;;;;;11.00;6.97;;;;;;;;;;4917946;29;20668;-94
2022/01/10 02:26:37;;;;;;;8.57;6.83;;;;;;;;;;4917240;29;20223;-94
2022/01/10 02:29:04;;;;;;;9.30;6.53;;;;;;;;;;4917756;29;20203;-94
2022/01/10 02:31:35;;;;;;;14.27;7.47;;;;;;;;;;4918229;29;20218;-94
2022/01/10 02:34:03;;;;;;;10.97;6.53;;;;;;;;;;4917670;29;20214;-94
2022/01/10 02:36:30;;;;;;;11.70;6.80;;;;;;;;;;4916851;29;20226;-95
2022/01/10 02:39:00;;;;;;;9.37;6.33;;;;;;;;;;4918176;29;20214;-95
2022/01/10 02:41:28;;;;;;;9.63;7.03;;;;;;;;;;4917492;29;20320;-94
2022/01/10 02:43:56;;;;;;;9.50;6.97;;;;;;;;;;4916997;29;20211;-94
2022/01/10 02:46:23;;;;;;;9.90;7.17;;;;;;;;;;4917406;29;20274;-94
2022/01/10 02:48:50;;;;;;;9.90;7.17;;;;;;;;;;4917395;29;20267;-94
2022/01/10 02:51:18;;;;;;;10.80;6.80;;;;;;;;;;4917425;29;20203;-94
2022/01/10 02:53:45;;;;;;;9.83;7.23;;;;;;;;;;4917135;29;20221;-94
2022/01/10 02:56:14;;;;;;;8.83;6.10;;;;;;;;;;4916867;29;20226;-94
2022/01/10 02:58:42;;;;;;;12.87;7.87;;;;;;;;;;4917647;29;20221;-93
2022/01/10 03:01:09;;;;;;;10.30;6.97;;;;;;;;;;4917220;29;20218;-93
2022/01/10 03:03:37;;;;;;;10.53;6.73;;;;;;;;;;4917043;29;20220;-93
2022/01/10 03:06:04;;;;;;;10.17;7.10;;;;;;;;;;4917131;29;20254;-93
2022/01/10 03:08:33;;;;;;;10.17;7.47;;;;;;;;;;4903628;29;20218;-94
2022/01/10 03:11:01;;;;;;;11.13;7.80;;;;;;;;;;4910995;29;20211;-93
2022/01/10 03:13:29;;;;;;;9.60;7.00;;;;;;;;;;4917208;29;20202;-94
2022/01/10 03:15:57;;;;;;;9.73;6.53;;;;;;;;;;4916649;29;20243;-94
2022/01/10 03:18:25;;;;;;;11.43;7.47;;;;;;;;;;4916715;29;20270;-93
2022/01/10 03:20:52;;;;;;;9.03;6.43;;;;;;;;;;4917099;29;20218;-93
2022/01/10 03:23:19;;;;;;;7.53;6.00;;;;;;;;;;4916758;29;20215;-93
2022/01/10 03:25:47;;;;;;;10.87;7.43;;;;;;;;;;4916746;29;20230;-93
2022/01/10 03:28:15;;;;;;;9.30;6.90;;;;;;;;;;4916695;29;20207;-94
2022/01/10 03:30:44;;;;;;;9.57;6.67;;;;;;;;;;4917006;29;20237;-93
2022/01/10 03:33:11;;;;;;;11.47;7.90;;;;;;;;;;4917424;29;20227;-94
2022/01/10 03:35:39;;;;;;;10.93;7.27;;;;;;;;;;4920143;29;20229;-94
2022/01/10 03:38:06;;;;;;;10.77;7.33;;;;;;;;;;4913128;29;20427;-93
2022/01/10 03:40:34;;;;;;;10.20;7.10;;;;;;;;;;4916758;29;20294;-94
2022/01/10 03:43:01;;;;;;;10.40;6.97;;;;;;;;;;4919795;29;20210;-94
2022/01/10 03:45:29;;;;;;;9.57;6.73;;;;;;;;;;4919856;29;20226;-93
2022/01/10 03:47:58;;;;;;;9.77;6.40;;;;;;;;;;4920213;29;20266;-92
2022/01/10 03:50:25;;;;;;;7.83;6.10;;;;;;;;;;4919041;29;20210;-93
2022/01/10 03:52:53;;;;;;;9.13;6.40;;;;;;;;;;4920022;29;20581;-93
2022/01/10 03:55:20;;;;;;;9.60;6.47;;;;;;;;;;4919994;29;20692;-92
2022/01/10 03:57:47;;;;;;;7.67;6.33;;;;;;;;;;4919790;29;20230;-93
2022/01/10 04:00:15;;;;;;;9.40;5.77;;;;;;;;;;4914915;29;20238;-92
2022/01/10 04:02:47;;;;;;;8.50;6.33;;;;;;;;;;4920817;29;20237;-92
2022/01/10 04:05:16;;;;;;;9.33;6.67;;;;;;;;;;4926369;29;20219;-92
2022/01/10 04:07:43;;;;;;;9.20;5.60;;;;;;;;;;4932788;29;20214;-94
2022/01/10 04:10:11;;;;;;;9.17;6.37;;;;;;;;;;4929389;29;20209;-93
2022/01/10 04:12:38;;;;;;;7.87;6.13;;;;;;;;;;4920432;29;20262;-94
2022/01/10 04:15:08;;;;;;;7.93;5.60;;;;;;;;;;4919943;29;20227;-93
2022/01/10 04:17:35;;;;;;;7.73;5.33;;;;;;;;;;4919465;29;20219;-93
2022/01/10 04:20:03;;;;;;;9.17;5.93;;;;;;;;;;4920129;29;20207;-93
2022/01/10 04:22:32;;;;;;;8.73;5.13;;;;;;;;;;4919972;29;20629;-93
2022/01/10 04:25:00;;;;;;;8.93;6.17;;;;;;;;;;4919118;29;20603;-92
2022/01/10 04:27:31;;;;;;;6.77;6.03;;;;;;;;;;4916607;29;20211;-94
2022/01/10 04:29:59;;;;;;;8.23;6.03;;;;;;;;;;4919450;29;20207;-94
2022/01/10 04:32:29;;;;;;;7.93;5.60;;;;;;;;;;4919412;29;20237;-93
2022/01/10 04:34:57;;;;;;;8.53;6.67;;;;;;;;;;4918739;29;20231;-94
2022/01/10 04:37:25;;;;;;;11.70;6.27;;;;;;;;;;4919230;29;20219;-93
2022/01/10 04:39:53;;;;;;;12.47;7.43;;;;;;;;;;4919520;29;20211;-93
2022/01/10 04:42:21;;;;;;;10.47;6.57;;;;;;;;;;4918121;29;20242;-93
2022/01/10 04:44:49;;;;;;;9.43;6.27;;;;;;;;;;4918798;29;20234;-93
2022/01/10 04:47:16;;;;;;;11.50;6.63;;;;;;;;;;4919062;29;20202;-93
2022/01/10 04:50:04;;;;;;;8.90;7.13;;;;;;;;;;4919442;29;20210;-93
2022/01/10 04:52:32;;;;;;;9.13;6.33;;;;;;;;;;4915032;29;20509;-93
2022/01/10 04:55:01;;;;;;;9.60;6.97;;;;;;;;;;4918673;29;20230;-94
2022/01/10 04:57:28;;;;;;;9.77;7.13;;;;;;;;;;4918991;29;20286;-93
2022/01/10 04:59:56;;;;;;;7.70;6.00;;;;;;;;;;4918809;29;20214;-93
2022/01/10 05:02:23;;;;;;;7.93;5.47;;;;;;;;;;4919266;29;20665;-93
2022/01/10 05:04:50;;;;;;;7.67;6.40;;;;;;;;;;4919013;29;20230;-93
2022/01/10 05:07:18;;;;;;;7.57;6.10;;;;;;;;;;4918700;29;20267;-93
2022/01/10 05:09:45;;;;;;;8.87;6.20;;;;;;;;;;4917852;29;20234;-93
2022/01/10 05:12:14;;;;;;;7.47;6.13;;;;;;;;;;4919033;29;20199;-93
2022/01/10 05:14:41;;;;;;;10.37;6.47;;;;;;;;;;4918380;29;20223;-93
2022/01/10 05:17:11;;;;;;;6.73;6.03;;;;;;;;;;4913862;29;20228;-94
2022/01/10 05:19:38;;;;;;;8.30;6.77;;;;;;;;;;4918676;29;20214;-94
2022/01/10 05:22:06;;;;;;;10.43;7.10;;;;;;;;;;4899807;29;20219;-94
2022/01/10 05:24:33;;;;;;;13.70;7.80;;;;;;;;;;4906438;29;20230;-93
2022/01/10 05:27:00;;;;;;;12.30;7.80;;;;;;;;;;4918355;29;20198;-94
2022/01/10 05:29:29;;;;;;;11.87;8.17;;;;;;;;;;4918431;29;20203;-93
2022/01/10 05:31:56;;;;;;;10.40;7.13;;;;;;;;;;4919294;29;20211;-94
2022/01/10 05:34:24;;;;;;;10.87;6.73;;;;;;;;;;4918478;29;20222;-93
2022/01/10 05:36:52;;;;;;;11.67;7.53;;;;;;;;;;4922930;29;20282;-93
2022/01/10 05:39:19;;;;;;;12.67;7.93;;;;;;;;;;4918480;29;20210;-93
2022/01/10 05:41:46;;;;;;;9.00;7.57;;;;;;;;;;4918143;29;20234;-93
2022/01/10 05:44:14;;;;;;;10.67;7.37;;;;;;;;;;4917711;29;20285;-93
2022/01/10 05:46:43;;;;;;;9.03;6.93;;;;;;;;;;4918151;29;20209;-93
2022/01/10 05:49:12;;;;;;;8.57;6.17;;;;;;;;;;4918351;29;20214;-93
2022/01/10 05:51:40;;;;;;;10.00;7.43;;;;;;;;;;4919239;29;20672;-93
2022/01/10 05:54:08;;;;;;;10.63;7.53;;;;;;;;;;4918758;29;20222;-93
2022/01/10 05:56:37;;;;;;;10.07;7.20;;;;;;;;;;4918078;29;20230;-94
2022/01/10 05:59:05;;;;;;;9.70;6.87;;;;;;;;;;4917993;29;20205;-94
2022/01/10 06:01:32;;;;;;;9.53;7.27;;;;;;;;;;4918013;29;20210;-94
2022/01/10 06:04:01;;;;;;;9.63;7.43;;;;;;;;;;4918921;29;20736;-94
2022/01/10 06:06:28;;;;;;;9.90;7.10;;;;;;;;;;4918483;29;20298;-93
2022/01/10 06:08:56;;;;;;;14.10;8.20;;;;;;;;;;4917411;29;20631;-93
2022/01/10 06:11:23;;;;;;;14.73;8.53;;;;;;;;;;4917372;29;20214;-93
2022/01/10 06:13:50;;;;;;;10.40;7.50;;;;;;;;;;4918192;29;20563;-93
2022/01/10 06:16:23;;;;;;;13.53;8.17;;;;;;;;;;4919594;29;20239;-94
2022/01/10 06:18:51;;;;;;;10.27;7.20;;;;;;;;;;4919047;29;20226;-93
2022/01/10 06:21:19;;;;;;;8.80;6.47;;;;;;;;;;4918343;29;20708;-94
2022/01/10 06:23:47;;;;;;;10.87;6.93;;;;;;;;;;4918826;29;20214;-93
2022/01/10 06:26:14;;;;;;;11.03;7.20;;;;;;;;;;4915583;29;20251;-92
2022/01/10 06:28:41;;;;;;;11.20;7.53;;;;;;;;;;4915408;29;20213;-93
2022/01/10 06:31:09;;;;;;;8.77;6.23;;;;;;;;;;4921667;29;20217;-93
2022/01/10 06:33:36;;;;;;;8.53;6.80;;;;;;;;;;4913807;29;20211;-93
2022/01/10 06:36:05;;;;;;;11.93;7.60;;;;;;;;;;4912658;29;20241;-93
2022/01/10 06:38:34;;;;;;;12.50;9.33;;;;;;;;;;4920499;29;20219;-93
2022/01/10 06:41:01;;;;;;;11.63;7.53;;;;;;;;;;4908417;29;20306;-94
2022/01/10 06:43:28;;;;;;;12.57;7.87;;;;;;;;;;4898647;29;20296;-92
2022/01/10 06:45:56;;;;;;;8.30;7.20;;;;;;;;;;4898348;29;20696;-92
2022/01/10 06:48:23;;;;;;;10.27;7.70;;;;;;;;;;4897836;29;20215;-92
2022/01/10 06:50:51;;;;;;;11.37;7.57;;;;;;;;;;4898031;29;20218;-92
2022/01/10 06:53:19;;;;;;;11.13;7.93;;;;;;;;;;4898066;29;20211;-93
2022/01/10 06:55:48;;;;;;;11.37;7.60;;;;;;;;;;4897846;29;20249;-93
2022/01/10 06:58:16;;;;;;;10.33;7.70;;;;;;;;;;4897477;29;20223;-93
2022/01/10 07:00:43;;;;;;;10.80;6.90;;;;;;;;;;4897661;29;20298;-92
2022/01/10 07:03:11;;;;;;;10.37;7.10;;;;;;;;;;4897754;29;20270;-93
2022/01/10 07:05:38;;;;;;;10.87;7.67;;;;;;;;;;4897704;29;20261;-93
2022/01/10 07:08:06;;;;;;;12.13;7.70;;;;;;;;;;4900354;29;20215;-92
2022/01/10 07:10:34;;;;;;;9.60;7.67;;;;;;;;;;4901328;29;20214;-92
2022/01/10 07:13:02;;;;;;;10.07;7.47;;;;;;;;;;4901620;29;20215;-93
2022/01/10 07:15:30;;;;;;;13.37;8.13;;;;;;;;;;4900724;29;20716;-92
2022/01/10 07:17:57;;;;;;;8.63;7.23;;;;;;;;;;4901121;29;20227;-92
2022/01/10 07:20:27;;;;;;;9.73;7.90;;;;;;;;;;4901225;29;20631;-92
2022/01/10 07:22:54;;;;;;;11.73;7.17;;;;;;;;;;4901720;29;20310;-92
2022/01/10 07:25:21;;;;;;;7.57;6.37;;;;;;;;;;4901095;29;20264;-93
2022/01/10 07:27:49;;;;;;;9.70;6.53;;;;;;;;;;4901058;29;20219;-92
2022/01/10 07:30:18;;;;;;;9.33;6.87;;;;;;;;;;4901385;29;20211;-92
2022/01/10 07:32:45;;;;;;;9.47;6.70;;;;;;;;;;4900954;29;20215;-93
2022/01/10 07:35:13;;;;;;;11.03;7.70;;;;;;;;;;4901292;29;20234;-93
2022/01/10 07:37:40;;;;;;;9.50;7.00;;;;;;;;;;4900965;29;20223;-92
2022/01/10 07:40:08;;;;;;;7.53;6.10;;;;;;;;;;4900747;29;20219;-93
2022/01/10 07:42:35;;;;;;;10.90;7.67;;;;;;;;;;4900536;29;20214;-92
2022/01/10 07:45:03;;;;;;;14.73;9.20;;;;;;;;;;4901297;29;20238;-93
2022/01/10 07:47:36;;;;;;;10.83;8.23;;;;;;;;;;4901816;29;20207;-93
2022/01/10 07:50:03;;;;;;;10.13;7.63;;;;;;;;;;4908193;29;20206;-93
2022/01/10 07:52:32;;;;;;;9.20;7.30;;;;;;;;;;4916691;29;20209;-94
2022/01/10 07:55:00;;;;;;;10.80;7.23;;;;;;;;;;4920354;29;20753;-93
2022/01/10 07:57:28;;;;;;;10.00;7.47;;;;;;;;;;4919613;29;20230;-94
2022/01/10 07:59:55;;;;;;;9.90;6.90;;;;;;;;;;4918444;29;20214;-94
2022/01/10 08:02:25;;;;;;;11.17;7.70;;;;;;;;;;4920229;29;20212;-93
2022/01/10 08:04:54;;;;;;;13.13;7.80;;;;;;;;;;4921449;29;20249;-93
2022/01/10 08:07:21;;;;;;;8.27;6.17;;;;;;;;;;4920698;29;20211;-93
2022/01/10 08:09:49;;;;;;;11.17;7.50;;;;;;;;;;4918552;29;20218;-93
2022/01/10 08:12:16;;;;;;;8.80;6.50;;;;;;;;;;4919784;29;20206;-93
2022/01/10 08:14:44;;;;;;;11.87;7.33;;;;;;;;;;4920517;29;20297;-93
2022/01/10 08:17:11;;;;;;;11.17;7.80;;;;;;;;;;4917220;29;20206;-94
2022/01/10 08:19:39;;;;;;;10.40;7.23;;;;;;;;;;4918711;29;20768;-94
2022/01/10 08:22:08;;;;;;;9.13;7.30;;;;;;;;;;4919644;29;20645;-94
2022/01/10 08:24:35;;;;;;;12.73;9.07;;;;;;;;;;4919790;29;20226;-92
2022/01/10 08:27:03;;;;;;;10.33;8.40;;;;;;;;;;4915924;29;20679;-93
2022/01/10 08:29:30;;;;;;;13.53;7.93;;;;;;;;;;4924352;29;20554;-93
2022/01/10 08:31:58;;;;;;;10.17;8.00;;;;;;;;;;4919429;29;20226;-93
2022/01/10 08:34:26;;;;;;;12.07;8.40;;;;;;;;;;4919616;29;20221;-93
2022/01/10 08:36:54;;;;;;;11.87;7.33;;;;;;;;;;4916488;29;20223;-92
2022/01/10 08:39:23;;;;;;;11.70;7.43;;;;;;;;;;4918788;29;20226;-94
2022/01/10 08:41:51;;;;;;;13.57;8.17;;;;;;;;;;4917793;29;20649;-94
2022/01/10 08:44:18;;;;;;;13.37;8.40;;;;;;;;;;4918144;29;20214;-93
2022/01/10 08:46:46;;;;;;;11.70;8.77;;;;;;;;;;4916584;29;20222;-92
2022/01/10 08:49:14;;;;;;;12.20;7.67;;;;;;;;;;4919039;29;20207;-93
2022/01/10 08:51:41;;;;;;;11.30;7.80;;;;;;;;;;4919802;29;20218;-94
2022/01/10 08:54:10;;;;;;;12.30;7.93;;;;;;;;;;4915918;29;20215;-93
2022/01/10 08:56:40;;;;;;;11.70;7.87;;;;;;;;;;4916842;29;20211;-92
2022/01/10 08:59:07;;;;;;;14.83;7.93;;;;;;;;;;4912391;29;20215;-93
2022/01/10 09:01:35;;;;;;;11.43;6.97;;;;;;;;;;4920739;29;20218;-93
2022/01/10 09:04:03;;;;;;;9.37;6.13;;;;;;;;;;4918725;29;20238;-93
2022/01/10 09:06:30;;;;;;;10.97;7.00;;;;;;;;;;4919272;29;20315;-93
2022/01/10 09:08:57;;;;;;;11.77;7.37;;;;;;;;;;4918345;29;20671;-94
2022/01/10 09:11:25;;;;;;;10.73;7.70;;;;;;;;;;4919055;29;20214;-94
2022/01/10 09:13:54;;;;;;;11.20;7.40;;;;;;;;;;4913382;29;20210;-93
2022/01/10 09:16:21;;;;;;;13.03;8.03;;;;;;;;;;4917108;29;20222;-94
2022/01/10 09:18:48;;;;;;;13.37;7.83;;;;;;;;;;4918552;29;20237;-93
2022/01/10 09:21:16;;;;;;;13.90;6.57;;;;;;;;;;4917352;29;20210;-93
2022/01/10 09:23:43;;;;;;;14.07;6.80;;;;;;;;;;4913315;29;20269;-94
2022/01/10 09:26:10;;;;;;;9.73;6.80;;;;;;;;;;4918932;29;20234;-94
2022/01/10 09:28:38;;;;;;;11.83;6.70;;;;;;;;;;4917574;29;20829;-92
2022/01/10 09:31:06;;;;;;;13.40;7.50;;;;;;;;;;4910070;29;20207;-93
2022/01/10 09:33:34;;;;;;;10.90;6.80;;;;;;;;;;4918208;29;20214;-94
2022/01/10 09:36:01;;;;;;;14.00;6.30;;;;;;;;;;4914116;29;20224;-93
2022/01/10 09:38:29;;;;;;;11.00;6.27;;;;;;;;;;4915922;29;20335;-93
2022/01/10 09:40:56;;;;;;;12.13;7.47;;;;;;;;;;4918197;29;20776;-93
2022/01/10 09:43:25;;;;;;;16.47;8.60;;;;;;;;;;4913227;29;20211;-93
2022/01/10 09:46:02;;;;;;;11.83;6.50;;;;;;;;;;4910311;29;20234;-93
2022/01/10 09:48:31;;;;;;;11.80;6.27;;;;;;;;;;4910610;29;20211;-93
2022/01/10 09:50:59;;;;;;;14.73;6.80;;;;;;;;;;4916918;29;20217;-93
2022/01/10 09:53:26;;;;;;;12.80;6.90;;;;;;;;;;4918487;29;20206;-93
2022/01/10 09:55:54;;;;;;;11.00;6.90;;;;;;;;;;4912134;29;20230;-93
2022/01/10 09:58:22;;;;;;;10.90;7.13;;;;;;;;;;4913869;29;20227;-93
2022/01/10 10:00:49;;;;;;;14.90;6.90;;;;;;;;;;4917540;29;20214;-93
2022/01/10 10:03:22;;;;;;;12.77;7.70;;;;;;;;;;4917561;29;20218;-93
2022/01/10 10:05:54;;;;;;;13.20;7.53;;;;;;;;;;4914531;29;20237;-91
2022/01/10 10:08:22;;;;;;;12.40;7.67;;;;;;;;;;4917677;29;20211;-94
2022/01/10 10:10:50;;;;;;;13.47;7.47;;;;;;;;;;4917484;29;20209;-93
2022/01/10 10:13:18;;;;;;;12.67;7.40;;;;;;;;;;4914760;29;20202;-93
2022/01/10 10:15:47;;;;;;;13.53;8.13;;;;;;;;;;4916961;29;20230;-92
2022/01/10 10:18:17;;;;;;;13.50;7.77;;;;;;;;;;4919304;29;20207;-93
2022/01/10 10:20:46;;;;;;;15.13;8.93;;;;;;;;;;4916330;29;20274;-93
2022/01/10 10:23:18;;;;;;;13.80;7.73;;;;;;;;;;4904744;29;20211;-93
2022/01/10 10:25:50;;;;;;;19.93;10.43;;;;;;;;;;4916344;29;20235;-93
2022/01/10 10:28:18;;;;;;;15.57;9.67;;;;;;;;;;4917686;29;20202;-94
2022/01/10 10:30:45;;;;;;;12.77;8.83;;;;;;;;;;4915579;29;20592;-93
2022/01/10 10:33:14;;;;;;;13.37;8.23;;;;;;;;;;4917958;29;20220;-95
2022/01/10 10:35:41;;;;;;;14.93;8.80;;;;;;;;;;4917441;29;20265;-94
2022/01/10 10:38:09;;;;;;;12.60;7.00;;;;;;;;;;4916796;29;20283;-94
2022/01/10 10:40:42;;;;;;;11.07;7.73;;;;;;;;;;4910778;29;20217;-93
2022/01/10 10:43:10;;;;;;;14.20;8.93;;;;;;;;;;4902731;29;20219;-94
2022/01/10 10:45:38;;;;;;;13.00;8.47;;;;;;;;;;4916629;29;20230;-94
2022/01/10 10:48:08;;;;;;;14.30;7.67;;;;;;;;;;4914503;29;20220;-94
2022/01/10 10:50:41;;;;;;;12.40;7.50;;;;;;;;;;4904583;29;20215;-94
2022/01/10 10:53:10;;;;;;;12.73;7.17;;;;;;;;;;4910090;29;20198;-93
2022/01/10 10:55:40;;;;;;;15.20;7.20;;;;;;;;;;4916995;29;20643;-94
2022/01/10 10:58:09;;;;;;;11.73;6.97;;;;;;;;;;4911387;29;20221;-94
2022/01/10 11:00:37;;;;;;;13.83;7.50;;;;;;;;;;4914014;29;20684;-93
2022/01/10 11:03:09;;;;;;;15.70;7.20;;;;;;;;;;4916380;29;20225;-94
2022/01/10 11:05:36;;;;;;;10.30;7.00;;;;;;;;;;4915444;29;20230;-93
2022/01/10 11:08:04;;;;;;;10.77;7.50;;;;;;;;;;4915211;29;20206;-94
2022/01/10 11:10:31;;;;;;;13.30;8.63;;;;;;;;;;4916647;29;20649;-93
2022/01/10 11:13:02;;;;;;;12.33;7.07;;;;;;;;;;4917009;29;20277;-93
2022/01/10 11:15:32;;;;;;;9.83;6.73;;;;;;;;;;4912719;29;20270;-93
2022/01/10 11:18:01;;;;;;;11.80;6.40;;;;;;;;;;4908682;29;20293;-93
2022/01/10 11:20:29;;;;;;;8.30;5.43;;;;;;;;;;4916779;29;20222;-94
2022/01/10 11:22:59;;;;;;;8.13;6.23;;;;;;;;;;4916894;29;20302;-93
2022/01/10 11:25:29;;;;;;;11.03;6.03;;;;;;;;;;4914871;29;20601;-93
2022/01/10 11:27:58;;;;;;;15.27;7.00;;;;;;;;;;4914977;29;20297;-94
2022/01/10 11:30:34;;;;;;;8.87;5.60;;;;;;;;;;4915249;29;20203;-92
2022/01/10 11:33:05;;;;;;;8.23;5.67;;;;;;;;;;4911145;29;20210;-93
2022/01/10 11:35:33;;;;;;;10.43;6.50;;;;;;;;;;4915872;29;20246;-93
2022/01/10 11:38:01;;;;;;;11.30;6.20;;;;;;;;;;4908700;29;20254;-93
2022/01/10 11:40:36;;;;;;;9.90;5.93;;;;;;;;;;4918681;29;20234;-94
2022/01/10 11:43:03;;;;;;;10.80;5.80;;;;;;;;;;4919592;29;20214;-95
2022/01/10 11:45:32;;;;;;;11.43;6.27;;;;;;;;;;4907822;29;20230;-93
2022/01/10 11:48:23;;;;;;;9.40;6.03;;;;;;;;;;4914646;29;20852;-93
2022/01/10 11:50:52;;;;;;;8.43;5.97;;;;;;;;;;4900162;29;20217;-93
2022/01/10 11:53:19;;;;;;;9.93;5.50;;;;;;;;;;4912167;29;20215;-94
2022/01/10 11:55:55;;;;;;;16.00;6.20;;;;;;;;;;4913528;29;20298;-93
2022/01/10 11:58:24;;;;;;;10.10;5.83;;;;;;;;;;4915374;29;20644;-94
2022/01/10 12:00:54;;;;;;;8.67;6.13;;;;;;;;;;4919217;29;20647;-93
2022/01/10 12:03:21;;;;;;;12.83;5.53;;;;;;;;;;4919730;29;20225;-93
2022/01/10 12:05:49;;;;;;;12.57;6.73;;;;;;;;;;4916639;29;20313;-94
2022/01/10 12:08:18;;;;;;;11.03;5.87;;;;;;;;;;4918851;29;20298;-93
2022/01/10 12:10:45;;;;;;;11.50;5.93;;;;;;;;;;4918888;29;20214;-93
2022/01/10 12:13:14;;;;;;;10.07;6.60;;;;;;;;;;4917327;29;20226;-92
2022/01/10 12:15:41;;;;;;;10.33;5.70;;;;;;;;;;4910175;29;20239;-91
2022/01/10 12:18:09;;;;;;;12.00;6.23;;;;;;;;;;4918463;29;20214;-92
2022/01/10 12:20:37;;;;;;;11.33;5.27;;;;;;;;;;4918574;29;20278;-92
2022/01/10 12:23:04;;;;;;;9.33;5.07;;;;;;;;;;4916245;29;20303;-92
2022/01/10 12:25:33;;;;;;;9.03;4.97;;;;;;;;;;4913604;29;20223;-92
2022/01/10 12:28:04;;;;;;;8.00;4.73;;;;;;;;;;4918132;29;20357;-92
2022/01/10 12:30:32;;;;;;;10.50;5.47;;;;;;;;;;4917138;29;20281;-92
2022/01/10 12:33:03;;;;;;;8.77;4.93;;;;;;;;;;4918056;29;20222;-92
2022/01/10 12:35:31;;;;;;;12.00;5.87;;;;;;;;;;4918441;29;20226;-92
2022/01/10 12:37:59;;;;;;;8.40;5.30;;;;;;;;;;4918558;29;20291;-91
2022/01/10 12:40:31;;;;;;;13.07;5.50;;;;;;;;;;4913530;29;20219;-91
2022/01/10 12:43:00;;;;;;;11.43;5.73;;;;;;;;;;4903816;29;20234;-92
2022/01/10 12:45:33;;;;;;;14.23;5.73;;;;;;;;;;4918166;29;20313;-92
2022/01/10 12:48:00;;;;;;;12.20;6.87;;;;;;;;;;4911161;29;20640;-91
2022/01/10 12:50:28;;;;;;;6.20;5.07;;;;;;;;;;4913146;29;20206;-92
2022/01/10 12:52:56;;;;;;;9.00;5.13;;;;;;;;;;4917799;29;20222;-92
2022/01/10 12:55:23;;;;;;;9.13;5.17;;;;;;;;;;4911736;29;20231;-92
2022/01/10 12:57:51;;;;;;;10.10;5.47;;;;;;;;;;4901060;29;20211;-92
2022/01/10 13:00:20;;;;;;;8.57;5.30;;;;;;;;;;4917995;29;20219;-91
2022/01/10 13:02:47;;;;;;;7.73;5.00;;;;;;;;;;4917682;29;20305;-91
2022/01/10 13:05:15;;;;;;;14.47;6.20;;;;;;;;;;4908470;29;20658;-92
2022/01/10 13:07:44;;;;;;;12.37;5.60;;;;;;;;;;4916332;29;20215;-91
2022/01/10 13:10:19;;;;;;;9.60;5.63;;;;;;;;;;4917752;29;20207;-91
2022/01/10 13:12:48;;;;;;;9.40;5.63;;;;;;;;;;4907927;29;20223;-92
2022/01/10 13:15:16;;;;;;;9.33;5.30;;;;;;;;;;4917371;29;20313;-92
2022/01/10 13:17:55;;;;;;;11.77;6.20;;;;;;;;;;4917411;29;20210;-91
2022/01/10 13:20:23;;;;;;;9.03;5.50;;;;;;;;;;4917931;29;20234;-92
2022/01/10 13:22:51;;;;;;;9.90;6.07;;;;;;;;;;4911293;29;20215;-92
2022/01/10 13:25:20;;;;;;;14.20;6.47;;;;;;;;;;4903013;29;20258;-92
2022/01/10 13:27:51;;;;;;;14.73;7.50;;;;;;;;;;4913254;29;20218;-91
2022/01/10 13:30:25;;;;;;;12.33;7.37;;;;;;;;;;4917293;29;20209;-93
2022/01/10 13:32:55;;;;;;;14.87;7.27;;;;;;;;;;4917926;29;20265;-93
2022/01/10 13:35:23;;;;;;;8.40;5.87;;;;;;;;;;4910502;29;20310;-93
2022/01/10 13:37:51;;;;;;;10.33;7.03;;;;;;;;;;4915657;29;20222;-93
2022/01/10 13:40:19;;;;;;;12.00;6.47;;;;;;;;;;4916631;29;20222;-93
2022/01/10 13:42:50;;;;;;;11.50;6.63;;;;;;;;;;4913328;29;20226;-93
2022/01/10 13:45:19;;;;;;;11.53;6.50;;;;;;;;;;4911083;29;20590;-94
2022/01/10 13:47:55;;;;;;;17.57;6.43;;;;;;;;;;4917290;29;20262;-94
2022/01/10 13:50:24;;;;;;;12.47;6.30;;;;;;;;;;4909246;29;20202;-93
2022/01/10 13:53:05;;;;;;;12.03;5.10;;;;;;;;;;4905569;29;20720;-93
2022/01/10 13:55:40;;;;;;;7.97;5.50;;;;;;;;;;4911177;29;20313;-93
2022/01/10 13:58:08;;;;;;;8.30;5.23;;;;;;;;;;4913587;29;20210;-93
2022/01/10 14:00:38;;;;;;;12.00;5.73;;;;;;;;;;4908385;29;20554;-92
2022/01/10 14:03:07;;;;;;;13.63;5.90;;;;;;;;;;4914215;29;20253;-92
2022/01/10 14:05:36;;;;;;;10.13;5.70;;;;;;;;;;4914607;29;20239;-93
2022/01/10 14:08:03;;;;;;;11.20;6.50;;;;;;;;;;4898050;29;20293;-94
2022/01/10 14:10:42;;;;;;;8.80;5.20;;;;;;;;;;4899824;29;20214;-94
2022/01/10 14:13:09;;;;;;;17.37;6.73;;;;;;;;;;4896152;29;20270;-94
2022/01/10 14:15:37;;;;;;;7.93;5.43;;;;;;;;;;4903008;29;20298;-93
2022/01/10 14:18:04;;;;;;;10.93;5.93;;;;;;;;;;4911954;29;20696;-92
2022/01/10 14:20:33;;;;;;;11.67;6.07;;;;;;;;;;4914733;29;20254;-94
2022/01/10 14:23:02;;;;;;;8.33;5.37;;;;;;;;;;4910088;29;20214;-92
2022/01/10 14:25:34;;;;;;;8.13;5.23;;;;;;;;;;4914183;29;20325;-94
2022/01/10 14:28:02;;;;;;;10.27;5.67;;;;;;;;;;4900304;29;20217;-94
2022/01/10 14:30:29;;;;;;;9.67;5.93;;;;;;;;;;4903066;29;20211;-92
2022/01/10 14:32:58;;;;;;;11.83;5.87;;;;;;;;;;4912949;29;20222;-93
2022/01/10 14:35:25;;;;;;;11.23;6.77;;;;;;;;;;4913977;29;20222;-93
2022/01/10 14:38:03;;;;;;;12.50;6.93;;;;;;;;;;4914085;29;20215;-91
2022/01/10 14:40:32;;;;;;;11.57;5.57;;;;;;;;;;4902969;29;20226;-94
2022/01/10 14:43:01;;;;;;;14.43;6.73;;;;;;;;;;4916257;29;20274;-92
2022/01/10 14:45:28;;;;;;;11.77;6.37;;;;;;;;;;4917235;29;20250;-91
2022/01/10 14:47:56;;;;;;;8.77;6.30;;;;;;;;;;4919615;29;20729;-90
2022/01/10 14:50:23;;;;;;;11.20;7.47;;;;;;;;;;4915242;29;20214;-92